Barnegat Township, New Jersey
Current Conditions -  °F | °C
As of 1:55 PM on Friday 21 Nov 2014 (Local Time) from KMJX Reporting Station
Clear Clear  
Wind Chill: 28°   Ceiling: Unl
Heat Index: 36°   Visibility: 10mi
Dew Point:   Wind: 12mph
Humidity: 33%   Direction: 300°WNW
Pressure: 30.34"   Gusts: 16mph
Location:  39.7838°N, 74.3306°W
Report Text: KMJX 211855Z AUTO 30010G14KT 10SM CLR 02/M13 A3034 RMK AO1
Loading
Personal Weather Stations






























Interactive Weather Map New forecast layout! Learn more

10-Day Weather Forecast

Advertisements
Track Severe Weather on mobile